ENAL/AES METAR and TAF weather

Enter ICAO airport designator
Station Type Date Time Source
ENAL METAR 2022/05/26 05:50 UTC NOAA

ENAL 260550Z VRB01KT 9999 BKN045 11/08 Q0997


Station Type Date Time Source
ENAL Decoded METAR 2022/05/26 05:50 UTC NOAA

Alesund / Vigra, Norway (ENAL) 62-34N 006-07E 22M
May 26, 2022 - 01:50 AM EDT / 2022.05.26 0550 UTC
Wind: Variable at 1 MPH (1 KT):0
Visibility: greater than 7 mile(s):0
Sky conditions: mostly cloudy
Temperature: 51 F (11 C)
Dew Point: 46 F (8 C)
Relative Humidity: 81%
Pressure (altimeter): 29.44 in. Hg (0997 hPa)
ob: ENAL 260550Z VRB01KT 9999 BKN045 11/08 Q0997
cycle: 6

Station Type Date Time Source
ENAL TAF UTC NOAA

Error!

Example: see airport list